createdAt,value
2019-04-30T00:00:55.395Z,6.1502
2019-04-30T00:02:00.878Z,6.1502
2019-04-30T00:03:06.852Z,6.1769
2019-04-30T00:04:12.847Z,6.1635
2019-04-30T00:05:18.850Z,6.2062
2019-04-30T00:06:27.325Z,6.2196
2019-04-30T00:07:35.724Z,6.2329
2019-04-30T00:08:45.149Z,6.2329
2019-04-30T00:09:54.048Z,6.2490
2019-04-30T00:11:00.847Z,6.2490
2019-04-30T00:12:05.939Z,6.2062
2019-04-30T00:13:17.505Z,6.2062
2019-04-30T00:14:22.907Z,6.2062
2019-04-30T00:15:27.218Z,6.2062
2019-04-30T00:16:36.348Z,6.1635
2019-04-30T00:17:45.606Z,6.1502
2019-04-30T00:18:59.927Z,6.1502
2019-04-30T00:20:01.883Z,6.1635
2019-04-30T00:21:10.003Z,6.1368
2019-04-30T00:22:30.521Z,6.1368
2019-04-30T00:23:30.715Z,6.1208
2019-04-30T00:24:39.840Z,6.1502
2019-04-30T00:25:46.826Z,6.1929
2019-04-30T00:26:52.483Z,6.2062
2019-04-30T00:28:00.357Z,6.2062
2019-04-30T00:29:08.167Z,6.2062
2019-04-30T00:30:15.466Z,6.1929
2019-04-30T00:31:23.862Z,6.1929
2019-04-30T00:32:30.210Z,6.1929
2019-04-30T00:33:35.871Z,6.2329
2019-04-30T00:34:40.252Z,6.1929
2019-04-30T00:35:49.711Z,6.2062
2019-04-30T00:36:56.207Z,6.2196
2019-04-30T00:38:01.933Z,6.2490
2019-04-30T00:39:13.183Z,6.2196
2019-04-30T00:40:21.752Z,6.2329
2019-04-30T00:41:30.177Z,6.2329
2019-04-30T00:42:35.923Z,6.2062
2019-04-30T00:43:46.476Z,6.2062
2019-04-30T00:44:52.110Z,6.2062
2019-04-30T00:45:58.173Z,6.2196
2019-04-30T00:47:04.918Z,6.1929
2019-04-30T00:48:19.828Z,6.1929
2019-04-30T00:49:26.531Z,6.1929
2019-04-30T00:50:33.952Z,6.2196
2019-04-30T00:51:41.799Z,6.2490
2019-04-30T00:52:46.330Z,6.2490
2019-04-30T00:53:52.584Z,6.1929
2019-04-30T00:55:00.361Z,6.1929
2019-04-30T00:56:07.922Z,6.2490
2019-04-30T00:57:15.164Z,6.2196
2019-04-30T00:58:28.538Z,6.2329
2019-04-30T00:59:30.856Z,6.2062
2019-04-30T01:00:37.165Z,6.2062
2019-04-30T01:01:43.572Z,6.2329
2019-04-30T01:02:52.879Z,6.2490
2019-04-30T01:03:57.973Z,6.2490
2019-04-30T01:05:08.623Z,6.2623
2019-04-30T01:06:17.133Z,6.2623
2019-04-30T01:07:23.837Z,6.2757
2019-04-30T01:08:28.842Z,6.2757
2019-04-30T01:09:35.414Z,6.3050
2019-04-30T01:10:40.929Z,6.2623
2019-04-30T01:11:48.105Z,6.2757
2019-04-30T01:12:53.928Z,6.2623
2019-04-30T01:13:59.881Z,6.2757
2019-04-30T01:15:06.717Z,6.2917
2019-04-30T01:16:15.954Z,6.3050
2019-04-30T01:17:21.951Z,6.2623
2019-04-30T01:18:31.822Z,6.2329
2019-04-30T01:19:39.531Z,6.2329
2019-04-30T01:20:44.704Z,6.2196
2019-04-30T01:21:50.927Z,6.1635
2019-04-30T01:22:58.568Z,6.1929
2019-04-30T01:24:03.864Z,6.1635
2019-04-30T01:25:13.294Z,6.1635
2019-04-30T01:26:18.743Z,6.1074
2019-04-30T01:27:23.809Z,6.1074
2019-04-30T01:28:29.116Z,6.0941
2019-04-30T01:29:40.914Z,6.0941
2019-04-30T01:30:45.025Z,6.0780
2019-04-30T01:31:50.985Z,6.1208
2019-04-30T01:32:58.148Z,6.1208
2019-04-30T01:34:12.357Z,6.0941
2019-04-30T01:35:15.913Z,6.0780
2019-04-30T01:36:21.890Z,6.0780
2019-04-30T01:37:31.359Z,6.0380
2019-04-30T01:38:40.075Z,6.0220
2019-04-30T01:39:45.981Z,6.0220
2019-04-30T01:40:51.874Z,6.0780
2019-04-30T01:41:58.594Z,6.0220
2019-04-30T01:43:04.162Z,6.0513
2019-04-30T01:44:11.925Z,6.0513
2019-04-30T01:45:18.776Z,6.0380
2019-04-30T01:46:25.214Z,6.0220
2019-04-30T01:47:31.381Z,6.0086
2019-04-30T01:48:36.836Z,6.0513
2019-04-30T01:49:44.654Z,6.0086
2019-04-30T01:50:49.866Z,5.9953
2019-04-30T01:51:57.309Z,5.9792
2019-04-30T01:53:04.853Z,5.9659
2019-04-30T01:54:17.947Z,5.9525
2019-04-30T01:55:23.945Z,5.9525
2019-04-30T01:56:30.169Z,5.9659
2019-04-30T01:57:35.879Z,5.9792
2019-04-30T01:58:40.895Z,5.9953
2019-04-30T01:59:48.587Z,6.0086
2019-04-30T02:00:53.937Z,6.0220
2019-04-30T02:01:59.947Z,6.0647
2019-04-30T02:03:05.599Z,6.0513
2019-04-30T02:04:10.218Z,6.0513
2019-04-30T02:05:15.775Z,6.0380
2019-04-30T02:06:20.856Z,5.9792
2019-04-30T02:07:24.853Z,5.9659
2019-04-30T02:08:29.994Z,6.0941
2019-04-30T02:09:35.879Z,6.1208
2019-04-30T02:10:40.854Z,6.1502
2019-04-30T02:11:45.857Z,6.1929
2019-04-30T02:12:51.156Z,6.1502
2019-04-30T02:13:56.867Z,6.0780
2019-04-30T02:15:02.938Z,6.0647
2019-04-30T02:16:08.885Z,6.0647
2019-04-30T02:17:13.937Z,6.0941
2019-04-30T02:18:19.906Z,6.0647
2019-04-30T02:19:25.822Z,6.0513
2019-04-30T02:20:31.831Z,6.0647
2019-04-30T02:21:38.285Z,6.0647
2019-04-30T02:22:43.855Z,6.0513
2019-04-30T02:23:49.335Z,6.0220
2019-04-30T02:24:55.433Z,6.0220
2019-04-30T02:26:00.835Z,5.9953
2019-04-30T02:27:06.226Z,6.0220
2019-04-30T02:28:11.813Z,6.0380
2019-04-30T02:29:16.895Z,6.0220
2019-04-30T02:30:22.835Z,6.0220
2019-04-30T02:31:30.692Z,6.0380
2019-04-30T02:32:39.371Z,6.0380
2019-04-30T02:33:44.811Z,6.0380
2019-04-30T02:34:49.946Z,6.0647
2019-04-30T02:35:55.853Z,6.0220
2019-04-30T02:37:00.919Z,6.0513
2019-04-30T02:38:06.894Z,6.1208
2019-04-30T02:39:11.893Z,6.1208
2019-04-30T02:40:17.047Z,6.0941
2019-04-30T02:41:23.441Z,6.1074
2019-04-30T02:42:29.721Z,6.0780
2019-04-30T02:43:35.916Z,6.0780
2019-04-30T02:44:41.855Z,6.1769
2019-04-30T02:45:49.596Z,6.1769
2019-04-30T02:46:55.216Z,6.1635
2019-04-30T02:48:01.102Z,6.1769
2019-04-30T02:49:07.349Z,6.1635
2019-04-30T02:50:19.840Z,6.1208
2019-04-30T02:51:25.938Z,6.1368
2019-04-30T02:52:31.865Z,6.1074
2019-04-30T02:53:40.192Z,6.1769
2019-04-30T02:54:45.925Z,6.1769
2019-04-30T02:55:51.874Z,6.1635
2019-04-30T02:56:59.558Z,6.2062
2019-04-30T02:58:04.877Z,6.1368
2019-04-30T02:59:10.856Z,6.1502
2019-04-30T03:00:15.837Z,6.0941
2019-04-30T03:01:20.935Z,6.0941
2019-04-30T03:02:29.182Z,6.1208
2019-04-30T03:03:34.888Z,6.1368
2019-04-30T03:04:40.010Z,6.1208
2019-04-30T03:05:45.917Z,6.1635
2019-04-30T03:06:51.225Z,6.1769
2019-04-30T03:07:56.214Z,6.1635
2019-04-30T03:09:01.447Z,6.2196
2019-04-30T03:10:09.780Z,6.2490
2019-04-30T03:11:15.786Z,6.2062
2019-04-30T03:12:21.805Z,6.1769
2019-04-30T03:13:29.720Z,6.1769
2019-04-30T03:14:35.843Z,6.1635
2019-04-30T03:15:41.848Z,6.1769
2019-04-30T03:16:52.577Z,6.1502
2019-04-30T03:17:56.878Z,6.1769
2019-04-30T03:19:02.907Z,6.1368
2019-04-30T03:20:10.656Z,6.1502
2019-04-30T03:21:19.178Z,6.1502
2019-04-30T03:22:24.922Z,6.1368
2019-04-30T03:23:30.230Z,6.1502
2019-04-30T03:24:35.927Z,6.1502
2019-04-30T03:25:41.994Z,6.1368
2019-04-30T03:26:49.668Z,6.1208
2019-04-30T03:27:55.808Z,6.1074
2019-04-30T03:29:01.047Z,6.1368
2019-04-30T03:30:06.830Z,6.1368
2019-04-30T03:31:12.689Z,6.1074
2019-04-30T03:32:22.524Z,6.1208
2019-04-30T03:33:32.603Z,6.1208
2019-04-30T03:34:42.148Z,6.1502
2019-04-30T03:35:53.686Z,6.1635
2019-04-30T03:37:01.621Z,6.1929
2019-04-30T03:38:09.619Z,6.1635
2019-04-30T03:39:15.215Z,6.1502
2019-04-30T03:40:20.290Z,6.1502
2019-04-30T03:41:25.542Z,6.1208
2019-04-30T03:42:30.815Z,6.0941
2019-04-30T03:43:36.623Z,6.1074
2019-04-30T03:44:41.853Z,6.1074
2019-04-30T03:45:49.702Z,6.0941
2019-04-30T03:46:55.929Z,6.0647
2019-04-30T03:48:01.901Z,6.0647
2019-04-30T03:49:10.596Z,6.0780
2019-04-30T03:50:19.838Z,6.0513
2019-04-30T03:51:25.873Z,6.0086
2019-04-30T03:52:30.868Z,6.0086
2019-04-30T03:53:39.685Z,5.9953
2019-04-30T03:54:49.289Z,5.9659
2019-04-30T03:55:55.163Z,5.9525
2019-04-30T03:57:00.864Z,5.9392
2019-04-30T03:58:09.086Z,5.9098
2019-04-30T03:59:14.222Z,5.8965
2019-04-30T04:00:20.393Z,5.8804
2019-04-30T04:01:25.804Z,5.8671
2019-04-30T04:02:30.431Z,5.8404
2019-04-30T04:03:35.900Z,5.8404
2019-04-30T04:04:41.870Z,5.8244
2019-04-30T04:05:49.588Z,5.8244
2019-04-30T04:06:54.904Z,5.8404
2019-04-30T04:08:00.892Z,5.8244
2019-04-30T04:09:06.952Z,5.8244
2019-04-30T04:10:12.834Z,5.8404
2019-04-30T04:11:19.917Z,5.8965
2019-04-30T04:12:25.884Z,5.8965
2019-04-30T04:13:33.120Z,5.9525
2019-04-30T04:14:39.440Z,5.9659
2019-04-30T04:15:44.201Z,5.9792
2019-04-30T04:16:50.931Z,6.0220
2019-04-30T04:17:56.885Z,6.0086
2019-04-30T04:19:03.135Z,6.0220
2019-04-30T04:20:10.738Z,5.9659
2019-04-30T04:21:20.175Z,6.0086
2019-04-30T04:22:25.911Z,6.0513
2019-04-30T04:23:32.812Z,6.0647
2019-04-30T04:24:40.089Z,6.0513
2019-04-30T04:25:45.854Z,6.1208
2019-04-30T04:26:50.811Z,6.1208
2019-04-30T04:27:55.868Z,6.0780
2019-04-30T04:29:00.906Z,6.1074
2019-04-30T04:30:06.840Z,6.0780
2019-04-30T04:31:11.845Z,6.0647
2019-04-30T04:32:16.881Z,6.0780
2019-04-30T04:33:22.918Z,6.0647
2019-04-30T04:34:30.276Z,6.0941
2019-04-30T04:35:35.849Z,6.0941
2019-04-30T04:36:43.315Z,6.1074
2019-04-30T04:37:49.408Z,6.0647
2019-04-30T04:38:54.818Z,6.0941
2019-04-30T04:39:59.868Z,6.0780
2019-04-30T04:41:04.795Z,6.0941
2019-04-30T04:42:10.129Z,6.0941
2019-04-30T04:43:15.914Z,6.0941
2019-04-30T04:44:21.864Z,6.1208
2019-04-30T04:45:27.308Z,6.1208
2019-04-30T04:46:32.856Z,6.1208
2019-04-30T04:47:40.147Z,6.1502
2019-04-30T04:48:45.835Z,6.1368
2019-04-30T04:49:53.942Z,6.1635
2019-04-30T04:51:00.311Z,6.1635
2019-04-30T04:52:05.867Z,6.1502
2019-04-30T04:53:11.750Z,6.1074
2019-04-30T04:54:16.856Z,6.0647
2019-04-30T04:55:22.437Z,6.0780
2019-04-30T04:56:30.253Z,6.0647
2019-04-30T04:57:35.201Z,6.0647
2019-04-30T04:58:40.865Z,6.0647
2019-04-30T04:59:45.818Z,6.0780
2019-04-30T05:00:52.249Z,6.0780
2019-04-30T05:01:59.780Z,6.0780
2019-04-30T05:03:05.903Z,6.0780
2019-04-30T05:04:11.735Z,6.0513
2019-04-30T05:05:19.435Z,6.0380
2019-04-30T05:06:24.949Z,6.0647
2019-04-30T05:07:30.937Z,6.0220
2019-04-30T05:08:36.831Z,6.0380
2019-04-30T05:09:41.894Z,6.0513
2019-04-30T05:10:49.374Z,6.0380
2019-04-30T05:11:54.958Z,6.0647
2019-04-30T05:13:00.903Z,6.0513
2019-04-30T05:14:08.371Z,6.0513
2019-04-30T05:15:15.201Z,6.0780
2019-04-30T05:16:21.320Z,6.0647
2019-04-30T05:17:26.806Z,6.0513
2019-04-30T05:18:32.887Z,6.0941
2019-04-30T05:19:38.868Z,6.0780
2019-04-30T05:20:43.861Z,6.0941
2019-04-30T05:21:51.508Z,6.1074
2019-04-30T05:22:58.485Z,6.1502
2019-04-30T05:24:04.022Z,6.1929
2019-04-30T05:25:09.277Z,6.1769
2019-04-30T05:26:14.959Z,6.1929
2019-04-30T05:27:20.835Z,6.2062
2019-04-30T05:28:25.910Z,6.2757
2019-04-30T05:29:31.837Z,6.2329
2019-04-30T05:30:36.236Z,6.2329
2019-04-30T05:31:41.903Z,6.2623
2019-04-30T05:32:50.398Z,6.2917
2019-04-30T05:33:55.857Z,6.3317
2019-04-30T05:34:59.849Z,6.3050
2019-04-30T05:36:05.205Z,6.3611
2019-04-30T05:37:10.222Z,6.3905
2019-04-30T05:38:16.338Z,6.4305
2019-04-30T05:39:21.858Z,6.3905
2019-04-30T05:40:28.778Z,6.4733
2019-04-30T05:41:33.826Z,6.4466
2019-04-30T05:42:38.918Z,6.5026
2019-04-30T05:43:44.939Z,6.4893
2019-04-30T05:44:49.933Z,6.5160
2019-04-30T05:45:55.811Z,6.5908
2019-04-30T05:47:00.855Z,6.5587
2019-04-30T05:48:06.081Z,6.5721
2019-04-30T05:49:12.586Z,6.6175
2019-04-30T05:50:19.762Z,6.6041
2019-04-30T05:51:26.637Z,6.6175
2019-04-30T05:52:31.942Z,6.7029
2019-04-30T05:53:39.361Z,6.7163
2019-04-30T05:54:45.371Z,6.7590
2019-04-30T05:55:51.241Z,6.8151
2019-04-30T05:56:56.240Z,6.8284
2019-04-30T05:58:02.687Z,6.8711
2019-04-30T05:59:09.023Z,6.8845
2019-04-30T06:00:14.949Z,6.9272
2019-04-30T06:01:20.857Z,6.9432
2019-04-30T06:02:28.049Z,6.9699
2019-04-30T06:03:35.935Z,6.9566
2019-04-30T06:04:41.159Z,7.0420
2019-04-30T06:05:46.851Z,7.0554
2019-04-30T06:06:52.163Z,7.0981
2019-04-30T06:07:59.341Z,7.1408
2019-04-30T06:09:10.616Z,7.1675
2019-04-30T06:10:14.226Z,7.1809
2019-04-30T06:11:20.168Z,7.2103
2019-04-30T06:12:25.792Z,7.2530
2019-04-30T06:13:32.063Z,7.2236
2019-04-30T06:14:48.400Z,7.2530
2019-04-30T06:15:48.978Z,7.2663
2019-04-30T06:16:54.224Z,7.2957
2019-04-30T06:18:06.806Z,7.2103
2019-04-30T06:19:11.366Z,7.2663
2019-04-30T06:20:18.209Z,7.1809
2019-04-30T06:21:24.987Z,7.1969
2019-04-30T06:22:31.224Z,7.2103
2019-04-30T06:23:36.970Z,7.2530
2019-04-30T06:24:42.812Z,7.2530
2019-04-30T06:25:57.554Z,7.3091
2019-04-30T06:26:58.963Z,7.3358
2019-04-30T06:28:04.995Z,7.3224
2019-04-30T06:29:10.806Z,7.3224
2019-04-30T06:30:16.947Z,7.2663
2019-04-30T06:31:32.280Z,7.1969
2019-04-30T06:32:34.192Z,7.2370
2019-04-30T06:33:39.872Z,7.2663
2019-04-30T06:34:45.962Z,7.3224
2019-04-30T06:35:52.326Z,7.3812
2019-04-30T06:36:57.249Z,7.4105
2019-04-30T06:38:02.261Z,7.4372
2019-04-30T06:39:08.673Z,7.4533
2019-04-30T06:40:13.939Z,7.4800
2019-04-30T06:41:20.323Z,7.3972
2019-04-30T06:42:26.054Z,7.4666
2019-04-30T06:43:32.078Z,7.4800
2019-04-30T06:44:41.668Z,7.5227
2019-04-30T06:45:50.898Z,7.5654
2019-04-30T06:46:58.834Z,7.7203
2019-04-30T06:48:08.741Z,7.7897
2019-04-30T06:49:14.914Z,7.7897
2019-04-30T06:50:21.426Z,7.8325
2019-04-30T06:51:30.394Z,7.9179
2019-04-30T06:52:38.879Z,7.8752
2019-04-30T06:53:44.197Z,7.8325
2019-04-30T06:54:51.365Z,7.9046
2019-04-30T06:55:56.234Z,7.9179
2019-04-30T06:57:02.082Z,7.8485
2019-04-30T06:58:14.169Z,7.8618
2019-04-30T06:59:20.357Z,7.7497
2019-04-30T07:00:32.926Z,7.6909
2019-04-30T07:01:38.804Z,7.7203
2019-04-30T07:02:44.901Z,7.7070
2019-04-30T07:03:52.316Z,7.7070
2019-04-30T07:04:59.430Z,7.7070
2019-04-30T07:06:05.708Z,7.7764
2019-04-30T07:07:14.327Z,7.7897
2019-04-30T07:08:35.758Z,7.8485
2019-04-30T07:09:51.136Z,7.9473
2019-04-30T07:10:54.958Z,8.0301
2019-04-30T07:11:56.869Z,8.0728
2019-04-30T07:13:03.448Z,8.1022
2019-04-30T07:14:09.654Z,8.2036
2019-04-30T07:15:14.922Z,8.2036
2019-04-30T07:16:20.913Z,8.3024
2019-04-30T07:17:29.096Z,8.2597
2019-04-30T07:18:34.348Z,8.2437
2019-04-30T07:19:53.370Z,8.2437
2019-04-30T07:20:50.902Z,8.2303
2019-04-30T07:21:55.267Z,8.3291
2019-04-30T07:23:03.361Z,8.4707
2019-04-30T07:24:09.472Z,8.5267
2019-04-30T07:25:15.475Z,8.5267
2019-04-30T07:26:24.408Z,8.4413
2019-04-30T07:27:32.405Z,8.4573
2019-04-30T07:28:46.539Z,8.5401
2019-04-30T07:29:49.836Z,8.5134
2019-04-30T07:31:10.721Z,8.5561
2019-04-30T07:33:29.545Z,8.7377
2019-04-30T07:35:55.271Z,8.8365
2019-04-30T07:37:13.287Z,8.8365
2019-04-30T07:42:00.265Z,9.4614
2019-04-30T07:43:05.270Z,9.0368
2019-04-30T07:44:29.453Z,8.8659
2019-04-30T07:45:25.441Z,8.8525
2019-04-30T07:46:35.253Z,9.1783
2019-04-30T07:47:42.397Z,9.0368
2019-04-30T07:48:50.216Z,8.7243
2019-04-30T07:49:56.038Z,8.6255
2019-04-30T07:51:01.876Z,8.7671
2019-04-30T07:52:10.267Z,8.8365
2019-04-30T07:53:19.710Z,8.8098
2019-04-30T07:54:25.545Z,9.0501
2019-04-30T07:55:30.912Z,9.2344
2019-04-30T07:56:40.519Z,9.2477
2019-04-30T07:57:50.245Z,9.5735
2019-04-30T07:59:00.770Z,9.6296
2019-04-30T08:00:07.209Z,9.4747
2019-04-30T08:01:12.224Z,9.5602
2019-04-30T08:02:17.202Z,9.5735
2019-04-30T08:03:24.503Z,9.5869
2019-04-30T08:04:31.128Z,9.5174
2019-04-30T08:05:40.084Z,9.3198
2019-04-30T08:06:46.151Z,9.4053
2019-04-30T08:07:52.268Z,9.6002
2019-04-30T08:09:00.940Z,9.7017
2019-04-30T08:10:08.744Z,9.6296
2019-04-30T08:11:25.715Z,9.6750
2019-04-30T08:13:49.171Z,9.8165
2019-04-30T08:14:55.332Z,9.7738
2019-04-30T08:16:00.525Z,9.6296
2019-04-30T08:17:06.289Z,9.4747
2019-04-30T08:18:12.061Z,9.4747
2019-04-30T08:19:21.707Z,9.5014
2019-04-30T08:20:26.483Z,9.3626
2019-04-30T08:21:32.635Z,9.3759
2019-04-30T08:26:28.673Z,9.2905
2019-04-30T08:27:34.642Z,9.3065
2019-04-30T08:28:41.121Z,9.2771
2019-04-30T08:29:46.215Z,9.1783
2019-04-30T08:30:51.842Z,9.1649
2019-04-30T08:31:59.196Z,9.0928
2019-04-30T08:34:31.331Z,9.0368
2019-04-30T08:37:16.726Z,9.0234
2019-04-30T08:42:04.702Z,9.1489
2019-04-30T08:43:10.447Z,9.1783
2019-04-30T08:46:49.094Z,9.2638
2019-04-30T08:47:54.423Z,9.3065
2019-04-30T08:49:02.875Z,9.3065
2019-04-30T08:50:11.146Z,9.2905
2019-04-30T08:51:16.558Z,9.2905
2019-04-30T08:53:44.259Z,9.1783
2019-04-30T08:56:09.984Z,9.0368
2019-04-30T08:57:19.110Z,9.0101
2019-04-30T08:58:24.295Z,9.0795
2019-04-30T08:59:30.089Z,9.1356
2019-04-30T09:00:35.265Z,9.3626
2019-04-30T09:01:45.353Z,9.4186
2019-04-30T09:02:50.334Z,9.4881
2019-04-30T09:03:55.245Z,9.5869
2019-04-30T09:05:01.298Z,9.7177
2019-04-30T09:06:06.283Z,9.7444
2019-04-30T09:07:12.754Z,9.8859
2019-04-30T09:08:19.240Z,9.8726
2019-04-30T09:09:25.327Z,9.7017
2019-04-30T09:10:31.145Z,9.7444
2019-04-30T09:11:50.100Z,9.7738
2019-04-30T09:12:52.890Z,9.8299
2019-04-30T09:13:59.452Z,9.8993
2019-04-30T09:16:25.242Z,9.5735
2019-04-30T09:17:33.782Z,9.7604
2019-04-30T09:18:39.928Z,9.6750
2019-04-30T09:19:45.262Z,9.3893
2019-04-30T09:20:53.171Z,9.5014
2019-04-30T09:23:13.730Z,9.6883
2019-04-30T09:24:42.376Z,9.8005
2019-04-30T09:25:49.534Z,9.7871
2019-04-30T09:27:15.487Z,9.7311
2019-04-30T09:29:39.082Z,9.8432
2019-04-30T09:32:01.408Z,10.1530
2019-04-30T09:34:22.952Z,9.9847
2019-04-30T09:35:31.787Z,10.0275
2019-04-30T09:38:01.386Z,10.1129
2019-04-30T09:39:08.955Z,10.3105
2019-04-30T09:40:19.082Z,10.2117
2019-04-30T09:42:52.991Z,9.9847
2019-04-30T09:45:16.347Z,9.9554
2019-04-30T09:46:27.058Z,10.1263
2019-04-30T09:47:33.477Z,10.3506
2019-04-30T09:49:59.723Z,10.3506
2019-04-30T09:51:09.813Z,10.2518
2019-04-30T09:52:19.325Z,10.4120
2019-04-30T09:53:24.298Z,10.2945
2019-04-30T09:54:29.904Z,10.1823
2019-04-30T09:55:35.294Z,10.0275
2019-04-30T09:57:55.392Z,9.9714
2019-04-30T09:59:22.745Z,9.8726
2019-04-30T10:01:51.234Z,9.6162
2019-04-30T10:02:59.360Z,9.6590
2019-04-30T10:04:10.266Z,9.6590
2019-04-30T10:05:16.618Z,9.6590
2019-04-30T10:06:22.398Z,9.5869
2019-04-30T10:08:48.305Z,9.6296
2019-04-30T10:11:13.272Z,9.4320
2019-04-30T10:13:36.237Z,9.5308
2019-04-30T10:14:42.450Z,9.5441
2019-04-30T10:19:45.449Z,9.7311
2019-04-30T10:20:51.306Z,9.7871
2019-04-30T10:21:58.975Z,9.8299
2019-04-30T10:24:43.305Z,9.8592
2019-04-30T10:27:07.064Z,9.7738
2019-04-30T10:32:32.310Z,10.1957
2019-04-30T10:33:39.471Z,10.2678
2019-04-30T10:34:44.257Z,10.3506
2019-04-30T10:37:22.336Z,10.7057
2019-04-30T10:38:28.902Z,10.6657
2019-04-30T10:41:02.338Z,10.7351
2019-04-30T10:43:24.388Z,10.2384
2019-04-30T10:44:33.330Z,10.1263
2019-04-30T10:45:38.963Z,10.0835
2019-04-30T10:46:44.239Z,9.9420
2019-04-30T10:47:49.388Z,10.0702
2019-04-30T10:48:55.003Z,10.0275
2019-04-30T10:51:18.953Z,10.2678
2019-04-30T10:53:43.244Z,10.2678
2019-04-30T10:54:49.675Z,10.2518
2019-04-30T10:57:13.230Z,10.1129
2019-04-30T10:59:43.344Z,10.3372
2019-04-30T11:00:49.985Z,10.3693
2019-04-30T11:01:56.385Z,10.3239
2019-04-30T11:03:16.021Z,10.4120
2019-04-30T11:04:15.185Z,10.4387
2019-04-30T11:05:29.252Z,10.3239
2019-04-30T11:06:34.264Z,10.2518
2019-04-30T11:07:42.306Z,10.0835
2019-04-30T11:10:08.737Z,10.0969
2019-04-30T11:12:32.252Z,10.2811
2019-04-30T11:15:15.297Z,10.4120
2019-04-30T11:16:20.292Z,10.3693
2019-04-30T11:17:25.251Z,10.3506
2019-04-30T11:18:32.459Z,10.3372
2019-04-30T11:19:39.063Z,10.0542
2019-04-30T11:20:44.500Z,10.1823
2019-04-30T11:21:51.843Z,10.1530
2019-04-30T11:22:59.690Z,10.2678
2019-04-30T11:24:04.320Z,10.2251
2019-04-30T11:26:26.593Z,10.2811
2019-04-30T11:27:55.877Z,10.4120
2019-04-30T11:29:02.503Z,10.3693
2019-04-30T11:31:27.145Z,10.3826
2019-04-30T11:32:39.610Z,10.4120
